sensor_id;sensor_type;location;lat;lon;timestamp;P1;durP1;ratioP1;P2;durP2;ratioP2
21860;SDS011;11095;48.066;8.540;2022-11-20T00:01:04;11.85;;;7.93;;
21860;SDS011;11095;48.066;8.540;2022-11-20T00:03:38;11.70;;;7.97;;
21860;SDS011;11095;48.066;8.540;2022-11-20T00:06:05;11.23;;;6.93;;
21860;SDS011;11095;48.066;8.540;2022-11-20T00:08:35;10.20;;;6.60;;
21860;SDS011;11095;48.066;8.540;2022-11-20T00:11:07;8.95;;;5.88;;
21860;SDS011;11095;48.066;8.540;2022-11-20T00:13:34;9.85;;;6.85;;
21860;SDS011;11095;48.066;8.540;2022-11-20T00:16:00;9.65;;;7.15;;
21860;SDS011;11095;48.066;8.540;2022-11-20T00:18:27;9.00;;;6.68;;
21860;SDS011;11095;48.066;8.540;2022-11-20T00:20:53;9.35;;;6.57;;
21860;SDS011;11095;48.066;8.540;2022-11-20T00:23:25;8.88;;;6.40;;
21860;SDS011;11095;48.066;8.540;2022-11-20T00:25:50;7.53;;;5.70;;
21860;SDS011;11095;48.066;8.540;2022-11-20T00:28:16;8.57;;;6.00;;
21860;SDS011;11095;48.066;8.540;2022-11-20T00:30:42;10.27;;;6.40;;
21860;SDS011;11095;48.066;8.540;2022-11-20T00:33:07;8.30;;;6.13;;
21860;SDS011;11095;48.066;8.540;2022-11-20T00:35:33;8.32;;;6.30;;
21860;SDS011;11095;48.066;8.540;2022-11-20T00:37:59;9.77;;;6.80;;
21860;SDS011;11095;48.066;8.540;2022-11-20T00:40:24;8.35;;;5.90;;
21860;SDS011;11095;48.066;8.540;2022-11-20T00:42:50;10.77;;;6.97;;
21860;SDS011;11095;48.066;8.540;2022-11-20T00:45:15;9.18;;;6.47;;
21860;SDS011;11095;48.066;8.540;2022-11-20T00:47:41;8.48;;;5.72;;
21860;SDS011;11095;48.066;8.540;2022-11-20T00:50:07;10.80;;;6.47;;
21860;SDS011;11095;48.066;8.540;2022-11-20T00:52:33;8.55;;;5.85;;
21860;SDS011;11095;48.066;8.540;2022-11-20T00:54:58;7.80;;;5.60;;
21860;SDS011;11095;48.066;8.540;2022-11-20T00:57:24;8.68;;;5.70;;
21860;SDS011;11095;48.066;8.540;2022-11-20T00:59:50;8.77;;;6.20;;
21860;SDS011;11095;48.066;8.540;2022-11-20T01:02:15;8.00;;;5.80;;
21860;SDS011;11095;48.066;8.540;2022-11-20T01:04:41;9.15;;;6.10;;
21860;SDS011;11095;48.066;8.540;2022-11-20T01:07:07;8.75;;;6.32;;
21860;SDS011;11095;48.066;8.540;2022-11-20T01:09:33;8.43;;;5.80;;
21860;SDS011;11095;48.066;8.540;2022-11-20T01:11:58;7.88;;;5.93;;
21860;SDS011;11095;48.066;8.540;2022-11-20T01:14:25;7.50;;;5.18;;
21860;SDS011;11095;48.066;8.540;2022-11-20T01:16:51;7.32;;;5.15;;
21860;SDS011;11095;48.066;8.540;2022-11-20T01:19:18;6.45;;;5.40;;
21860;SDS011;11095;48.066;8.540;2022-11-20T01:21:48;6.15;;;5.20;;
21860;SDS011;11095;48.066;8.540;2022-11-20T01:24:18;6.90;;;5.10;;
21860;SDS011;11095;48.066;8.540;2022-11-20T01:26:45;6.22;;;5.05;;
21860;SDS011;11095;48.066;8.540;2022-11-20T01:29:14;7.68;;;4.97;;
21860;SDS011;11095;48.066;8.540;2022-11-20T01:31:41;7.18;;;5.03;;
21860;SDS011;11095;48.066;8.540;2022-11-20T01:34:11;6.40;;;5.25;;
21860;SDS011;11095;48.066;8.540;2022-11-20T01:36:39;6.70;;;4.95;;
21860;SDS011;11095;48.066;8.540;2022-11-20T01:39:14;6.00;;;4.80;;
21860;SDS011;11095;48.066;8.540;2022-11-20T01:41:42;6.38;;;4.78;;
21860;SDS011;11095;48.066;8.540;2022-11-20T01:47:39;6.93;;;5.00;;
21860;SDS011;11095;48.066;8.540;2022-11-20T01:55:19;5.70;;;4.50;;
21860;SDS011;11095;48.066;8.540;2022-11-20T01:57:50;5.38;;;4.25;;
21860;SDS011;11095;48.066;8.540;2022-11-20T02:00:17;6.88;;;4.65;;
21860;SDS011;11095;48.066;8.540;2022-11-20T02:02:46;6.10;;;4.53;;
21860;SDS011;11095;48.066;8.540;2022-11-20T02:07:52;5.00;;;3.95;;
21860;SDS011;11095;48.066;8.540;2022-11-20T02:10:19;4.65;;;3.50;;
21860;SDS011;11095;48.066;8.540;2022-11-20T02:12:45;5.25;;;4.15;;
21860;SDS011;11095;48.066;8.540;2022-11-20T02:15:29;5.55;;;3.80;;
21860;SDS011;11095;48.066;8.540;2022-11-20T02:17:57;6.03;;;3.92;;
21860;SDS011;11095;48.066;8.540;2022-11-20T02:20:23;4.55;;;3.78;;
21860;SDS011;11095;48.066;8.540;2022-11-20T02:23:08;5.00;;;3.72;;
21860;SDS011;11095;48.066;8.540;2022-11-20T02:25:37;5.57;;;4.00;;
21860;SDS011;11095;48.066;8.540;2022-11-20T02:28:03;4.75;;;3.97;;
21860;SDS011;11095;48.066;8.540;2022-11-20T02:30:30;5.78;;;4.05;;
21860;SDS011;11095;48.066;8.540;2022-11-20T02:32:57;7.57;;;4.72;;
21860;SDS011;11095;48.066;8.540;2022-11-20T02:37:49;6.97;;;4.80;;
21860;SDS011;11095;48.066;8.540;2022-11-20T02:40:18;8.93;;;5.18;;
21860;SDS011;11095;48.066;8.540;2022-11-20T02:42:44;7.40;;;4.78;;
21860;SDS011;11095;48.066;8.540;2022-11-20T02:45:09;6.13;;;4.38;;
21860;SDS011;11095;48.066;8.540;2022-11-20T02:47:35;5.30;;;4.00;;
21860;SDS011;11095;48.066;8.540;2022-11-20T02:50:01;4.63;;;3.60;;
21860;SDS011;11095;48.066;8.540;2022-11-20T02:52:28;6.28;;;4.30;;
21860;SDS011;11095;48.066;8.540;2022-11-20T02:54:53;6.20;;;4.78;;
21860;SDS011;11095;48.066;8.540;2022-11-20T02:57:19;6.03;;;4.97;;
21860;SDS011;11095;48.066;8.540;2022-11-20T02:59:45;6.40;;;5.00;;
21860;SDS011;11095;48.066;8.540;2022-11-20T03:02:10;7.13;;;5.25;;
21860;SDS011;11095;48.066;8.540;2022-11-20T03:04:36;7.35;;;5.45;;
21860;SDS011;11095;48.066;8.540;2022-11-20T03:07:02;8.75;;;5.50;;
21860;SDS011;11095;48.066;8.540;2022-11-20T03:09:28;6.80;;;5.22;;
21860;SDS011;11095;48.066;8.540;2022-11-20T03:11:53;7.13;;;5.18;;
21860;SDS011;11095;48.066;8.540;2022-11-20T03:14:19;6.07;;;4.82;;
21860;SDS011;11095;48.066;8.540;2022-11-20T03:16:45;6.05;;;4.57;;
21860;SDS011;11095;48.066;8.540;2022-11-20T03:19:11;9.57;;;6.07;;
21860;SDS011;11095;48.066;8.540;2022-11-20T03:21:37;7.30;;;5.50;;
21860;SDS011;11095;48.066;8.540;2022-11-20T03:24:02;6.15;;;4.68;;
21860;SDS011;11095;48.066;8.540;2022-11-20T03:26:29;6.80;;;4.95;;
21860;SDS011;11095;48.066;8.540;2022-11-20T03:28:56;5.90;;;4.65;;
21860;SDS011;11095;48.066;8.540;2022-11-20T03:31:30;8.90;;;5.40;;
21860;SDS011;11095;48.066;8.540;2022-11-20T03:34:01;6.65;;;4.60;;
21860;SDS011;11095;48.066;8.540;2022-11-20T03:36:29;6.00;;;4.80;;
21860;SDS011;11095;48.066;8.540;2022-11-20T03:38:55;7.20;;;5.07;;
21860;SDS011;11095;48.066;8.540;2022-11-20T03:41:22;8.55;;;4.90;;
21860;SDS011;11095;48.066;8.540;2022-11-20T03:43:50;6.13;;;4.72;;
21860;SDS011;11095;48.066;8.540;2022-11-20T03:46:24;9.95;;;5.97;;
21860;SDS011;11095;48.066;8.540;2022-11-20T03:48:50;7.80;;;5.70;;
21860;SDS011;11095;48.066;8.540;2022-11-20T03:51:20;9.10;;;6.03;;
21860;SDS011;11095;48.066;8.540;2022-11-20T03:53:48;8.43;;;6.22;;
21860;SDS011;11095;48.066;8.540;2022-11-20T03:56:16;7.43;;;5.88;;
21860;SDS011;11095;48.066;8.540;2022-11-20T03:58:43;8.20;;;5.75;;
21860;SDS011;11095;48.066;8.540;2022-11-20T04:01:10;8.68;;;6.13;;
21860;SDS011;11095;48.066;8.540;2022-11-20T04:03:40;8.32;;;6.00;;
21860;SDS011;11095;48.066;8.540;2022-11-20T04:08:38;8.70;;;5.75;;
21860;SDS011;11095;48.066;8.540;2022-11-20T04:11:23;8.80;;;6.30;;
21860;SDS011;11095;48.066;8.540;2022-11-20T04:13:52;8.93;;;5.90;;
21860;SDS011;11095;48.066;8.540;2022-11-20T04:16:19;8.88;;;5.93;;
21860;SDS011;11095;48.066;8.540;2022-11-20T04:18:46;11.38;;;6.28;;
21860;SDS011;11095;48.066;8.540;2022-11-20T04:21:12;8.23;;;5.70;;
21860;SDS011;11095;48.066;8.540;2022-11-20T04:23:38;9.45;;;5.88;;
21860;SDS011;11095;48.066;8.540;2022-11-20T04:26:08;8.55;;;5.45;;
21860;SDS011;11095;48.066;8.540;2022-11-20T04:28:35;6.78;;;4.95;;
21860;SDS011;11095;48.066;8.540;2022-11-20T04:31:08;7.95;;;5.05;;
21860;SDS011;11095;48.066;8.540;2022-11-20T04:33:39;7.93;;;5.40;;
21860;SDS011;11095;48.066;8.540;2022-11-20T04:36:06;8.50;;;5.13;;
21860;SDS011;11095;48.066;8.540;2022-11-20T04:38:35;6.63;;;4.80;;
21860;SDS011;11095;48.066;8.540;2022-11-20T04:41:02;6.25;;;4.57;;
21860;SDS011;11095;48.066;8.540;2022-11-20T04:43:29;5.95;;;4.43;;
21860;SDS011;11095;48.066;8.540;2022-11-20T04:45:56;5.15;;;4.07;;
21860;SDS011;11095;48.066;8.540;2022-11-20T04:48:23;4.20;;;3.50;;
21860;SDS011;11095;48.066;8.540;2022-11-20T04:50:50;6.13;;;4.00;;
21860;SDS011;11095;48.066;8.540;2022-11-20T04:53:16;4.47;;;3.60;;
21860;SDS011;11095;48.066;8.540;2022-11-20T04:55:42;4.57;;;3.70;;
21860;SDS011;11095;48.066;8.540;2022-11-20T04:58:08;5.55;;;3.90;;
21860;SDS011;11095;48.066;8.540;2022-11-20T05:00:33;5.60;;;3.60;;
21860;SDS011;11095;48.066;8.540;2022-11-20T05:02:59;4.53;;;3.47;;
21860;SDS011;11095;48.066;8.540;2022-11-20T05:05:25;4.57;;;3.42;;
21860;SDS011;11095;48.066;8.540;2022-11-20T05:07:50;5.57;;;3.67;;
21860;SDS011;11095;48.066;8.540;2022-11-20T05:10:16;4.75;;;3.47;;
21860;SDS011;11095;48.066;8.540;2022-11-20T05:12:42;4.65;;;3.60;;
21860;SDS011;11095;48.066;8.540;2022-11-20T05:15:07;5.55;;;3.80;;
21860;SDS011;11095;48.066;8.540;2022-11-20T05:17:33;5.43;;;3.95;;
21860;SDS011;11095;48.066;8.540;2022-11-20T05:19:59;4.97;;;3.90;;
21860;SDS011;11095;48.066;8.540;2022-11-20T05:22:25;4.63;;;3.83;;
21860;SDS011;11095;48.066;8.540;2022-11-20T05:24:50;5.38;;;4.18;;
21860;SDS011;11095;48.066;8.540;2022-11-20T05:27:16;5.55;;;4.18;;
21860;SDS011;11095;48.066;8.540;2022-11-20T05:29:42;7.18;;;4.70;;
21860;SDS011;11095;48.066;8.540;2022-11-20T05:32:07;7.40;;;4.70;;
21860;SDS011;11095;48.066;8.540;2022-11-20T05:34:34;5.53;;;4.15;;
21860;SDS011;11095;48.066;8.540;2022-11-20T05:37:01;6.15;;;4.47;;
21860;SDS011;11095;48.066;8.540;2022-11-20T05:39:27;6.93;;;4.32;;
21860;SDS011;11095;48.066;8.540;2022-11-20T05:41:52;7.95;;;5.00;;
21860;SDS011;11095;48.066;8.540;2022-11-20T05:44:38;7.07;;;5.07;;
21860;SDS011;11095;48.066;8.540;2022-11-20T05:47:04;7.95;;;4.88;;
21860;SDS011;11095;48.066;8.540;2022-11-20T05:49:30;6.28;;;4.85;;
21860;SDS011;11095;48.066;8.540;2022-11-20T05:51:56;7.88;;;5.18;;
21860;SDS011;11095;48.066;8.540;2022-11-20T05:54:22;8.52;;;5.57;;
21860;SDS011;11095;48.066;8.540;2022-11-20T05:56:47;7.93;;;4.97;;
21860;SDS011;11095;48.066;8.540;2022-11-20T05:59:13;7.70;;;5.10;;
21860;SDS011;11095;48.066;8.540;2022-11-20T06:01:39;8.75;;;5.40;;
21860;SDS011;11095;48.066;8.540;2022-11-20T06:04:04;7.55;;;5.47;;
21860;SDS011;11095;48.066;8.540;2022-11-20T06:06:30;8.38;;;5.80;;
21860;SDS011;11095;48.066;8.540;2022-11-20T06:08:55;8.35;;;5.38;;
21860;SDS011;11095;48.066;8.540;2022-11-20T06:11:23;8.68;;;5.88;;
21860;SDS011;11095;48.066;8.540;2022-11-20T06:13:50;8.32;;;5.63;;
21860;SDS011;11095;48.066;8.540;2022-11-20T06:16:17;8.15;;;5.53;;
21860;SDS011;11095;48.066;8.540;2022-11-20T06:18:44;9.10;;;5.80;;
21860;SDS011;11095;48.066;8.540;2022-11-20T06:21:11;9.52;;;6.22;;
21860;SDS011;11095;48.066;8.540;2022-11-20T06:23:39;9.27;;;5.78;;
21860;SDS011;11095;48.066;8.540;2022-11-20T06:26:06;8.52;;;6.28;;
21860;SDS011;11095;48.066;8.540;2022-11-20T06:28:32;9.57;;;6.22;;
21860;SDS011;11095;48.066;8.540;2022-11-20T06:30:58;9.70;;;6.45;;
21860;SDS011;11095;48.066;8.540;2022-11-20T06:33:24;10.10;;;6.72;;
21860;SDS011;11095;48.066;8.540;2022-11-20T06:35:50;9.77;;;6.75;;
21860;SDS011;11095;48.066;8.540;2022-11-20T06:38:16;9.10;;;6.15;;
21860;SDS011;11095;48.066;8.540;2022-11-20T06:40:42;10.02;;;6.78;;
21860;SDS011;11095;48.066;8.540;2022-11-20T06:43:09;11.55;;;7.53;;
21860;SDS011;11095;48.066;8.540;2022-11-20T06:45:35;10.07;;;6.85;;
21860;SDS011;11095;48.066;8.540;2022-11-20T06:48:01;11.65;;;6.97;;
21860;SDS011;11095;48.066;8.540;2022-11-20T06:50:27;10.73;;;7.10;;
21860;SDS011;11095;48.066;8.540;2022-11-20T06:52:53;10.68;;;7.35;;
21860;SDS011;11095;48.066;8.540;2022-11-20T06:55:18;11.45;;;7.18;;
21860;SDS011;11095;48.066;8.540;2022-11-20T06:57:44;10.95;;;7.80;;
21860;SDS011;11095;48.066;8.540;2022-11-20T07:00:09;14.15;;;8.52;;
21860;SDS011;11095;48.066;8.540;2022-11-20T07:02:36;12.80;;;8.32;;
21860;SDS011;11095;48.066;8.540;2022-11-20T07:05:01;13.88;;;7.70;;
21860;SDS011;11095;48.066;8.540;2022-11-20T07:07:27;12.63;;;8.43;;
21860;SDS011;11095;48.066;8.540;2022-11-20T07:09:53;18.08;;;8.43;;
21860;SDS011;11095;48.066;8.540;2022-11-20T07:12:18;12.98;;;8.77;;
21860;SDS011;11095;48.066;8.540;2022-11-20T07:14:44;16.35;;;8.73;;
21860;SDS011;11095;48.066;8.540;2022-11-20T07:17:09;13.40;;;8.13;;
21860;SDS011;11095;48.066;8.540;2022-11-20T07:19:36;14.55;;;8.02;;
21860;SDS011;11095;48.066;8.540;2022-11-20T07:22:01;13.98;;;8.15;;
21860;SDS011;11095;48.066;8.540;2022-11-20T07:24:27;11.18;;;7.38;;
21860;SDS011;11095;48.066;8.540;2022-11-20T07:26:53;13.90;;;8.30;;
21860;SDS011;11095;48.066;8.540;2022-11-20T07:29:18;12.85;;;8.27;;
21860;SDS011;11095;48.066;8.540;2022-11-20T07:31:44;18.38;;;9.27;;
21860;SDS011;11095;48.066;8.540;2022-11-20T07:34:09;14.45;;;9.52;;
21860;SDS011;11095;48.066;8.540;2022-11-20T07:36:35;17.08;;;10.38;;
21860;SDS011;11095;48.066;8.540;2022-11-20T07:39:01;12.30;;;8.70;;
21860;SDS011;11095;48.066;8.540;2022-11-20T07:41:26;11.20;;;6.60;;
21860;SDS011;11095;48.066;8.540;2022-11-20T07:43:52;8.18;;;6.28;;
21860;SDS011;11095;48.066;8.540;2022-11-20T07:46:18;7.45;;;5.65;;
21860;SDS011;11095;48.066;8.540;2022-11-20T07:48:44;7.03;;;5.50;;
21860;SDS011;11095;48.066;8.540;2022-11-20T07:51:09;7.25;;;5.72;;
21860;SDS011;11095;48.066;8.540;2022-11-20T07:53:35;7.90;;;5.80;;
21860;SDS011;11095;48.066;8.540;2022-11-20T07:56:01;10.40;;;7.90;;
21860;SDS011;11095;48.066;8.540;2022-11-20T07:58:28;9.60;;;7.60;;
21860;SDS011;11095;48.066;8.540;2022-11-20T08:00:55;6.13;;;5.53;;
21860;SDS011;11095;48.066;8.540;2022-11-20T08:03:21;3.85;;;3.53;;
21860;SDS011;11095;48.066;8.540;2022-11-20T08:05:46;3.03;;;2.72;;
21860;SDS011;11095;48.066;8.540;2022-11-20T08:08:12;2.67;;;2.47;;
21860;SDS011;11095;48.066;8.540;2022-11-20T08:10:37;2.63;;;2.30;;
21860;SDS011;11095;48.066;8.540;2022-11-20T08:13:03;2.60;;;2.40;;
21860;SDS011;11095;48.066;8.540;2022-11-20T08:15:48;2.30;;;2.10;;
21860;SDS011;11095;48.066;8.540;2022-11-20T08:18:15;2.33;;;2.13;;
21860;SDS011;11095;48.066;8.540;2022-11-20T08:20:42;2.33;;;2.13;;
21860;SDS011;11095;48.066;8.540;2022-11-20T08:23:08;2.92;;;2.67;;
21860;SDS011;11095;48.066;8.540;2022-11-20T08:25:34;3.53;;;2.42;;
21860;SDS011;11095;48.066;8.540;2022-11-20T08:28:06;2.90;;;2.60;;
21860;SDS011;11095;48.066;8.540;2022-11-20T08:30:34;2.88;;;2.38;;
21860;SDS011;11095;48.066;8.540;2022-11-20T08:33:01;2.63;;;2.42;;
21860;SDS011;11095;48.066;8.540;2022-11-20T08:35:34;3.05;;;2.60;;
21860;SDS011;11095;48.066;8.540;2022-11-20T08:38:01;3.47;;;2.80;;
21860;SDS011;11095;48.066;8.540;2022-11-20T08:40:28;3.42;;;2.78;;
21860;SDS011;11095;48.066;8.540;2022-11-20T08:42:54;2.63;;;2.40;;
21860;SDS011;11095;48.066;8.540;2022-11-20T08:45:19;3.15;;;2.85;;
21860;SDS011;11095;48.066;8.540;2022-11-20T08:47:45;4.07;;;3.20;;
21860;SDS011;11095;48.066;8.540;2022-11-20T08:50:12;3.20;;;2.50;;
21860;SDS011;11095;48.066;8.540;2022-11-20T08:52:40;2.75;;;2.38;;
21860;SDS011;11095;48.066;8.540;2022-11-20T08:55:07;4.43;;;2.88;;
21860;SDS011;11095;48.066;8.540;2022-11-20T08:57:34;3.33;;;2.80;;
21860;SDS011;11095;48.066;8.540;2022-11-20T09:00:02;2.83;;;2.60;;
21860;SDS011;11095;48.066;8.540;2022-11-20T09:02:29;2.83;;;2.60;;
21860;SDS011;11095;48.066;8.540;2022-11-20T09:04:55;2.25;;;2.03;;
21860;SDS011;11095;48.066;8.540;2022-11-20T09:07:21;2.40;;;2.20;;
21860;SDS011;11095;48.066;8.540;2022-11-20T09:09:47;2.83;;;2.10;;
21860;SDS011;11095;48.066;8.540;2022-11-20T09:12:12;2.03;;;1.80;;
21860;SDS011;11095;48.066;8.540;2022-11-20T09:14:38;1.85;;;1.70;;
21860;SDS011;11095;48.066;8.540;2022-11-20T09:17:04;2.05;;;1.67;;
21860;SDS011;11095;48.066;8.540;2022-11-20T09:19:30;1.85;;;1.70;;
21860;SDS011;11095;48.066;8.540;2022-11-20T09:21:55;2.03;;;1.70;;
21860;SDS011;11095;48.066;8.540;2022-11-20T09:24:21;2.00;;;1.73;;
21860;SDS011;11095;48.066;8.540;2022-11-20T09:26:46;1.95;;;1.55;;
21860;SDS011;11095;48.066;8.540;2022-11-20T09:29:12;1.88;;;1.60;;
21860;SDS011;11095;48.066;8.540;2022-11-20T09:31:38;1.80;;;1.70;;
21860;SDS011;11095;48.066;8.540;2022-11-20T09:34:03;2.30;;;1.60;;
21860;SDS011;11095;48.066;8.540;2022-11-20T09:36:29;1.48;;;1.38;;
21860;SDS011;11095;48.066;8.540;2022-11-20T09:38:55;2.30;;;1.65;;
21860;SDS011;11095;48.066;8.540;2022-11-20T09:41:34;1.83;;;1.70;;
21860;SDS011;11095;48.066;8.540;2022-11-20T09:44:14;2.20;;;1.40;;
21860;SDS011;11095;48.066;8.540;2022-11-20T09:47:08;1.35;;;1.25;;
21860;SDS011;11095;48.066;8.540;2022-11-20T09:55:22;2.80;;;1.70;;
21860;SDS011;11095;48.066;8.540;2022-11-20T09:57:48;1.20;;;1.02;;
21860;SDS011;11095;48.066;8.540;2022-11-20T10:00:17;1.30;;;1.05;;
21860;SDS011;11095;48.066;8.540;2022-11-20T10:02:54;0.80;;;0.80;;
21860;SDS011;11095;48.066;8.540;2022-11-20T10:05:33;0.95;;;0.93;;
21860;SDS011;11095;48.066;8.540;2022-11-20T10:08:21;0.88;;;0.80;;
21860;SDS011;11095;48.066;8.540;2022-11-20T10:21:32;3.35;;;2.50;;
21860;SDS011;11095;48.066;8.540;2022-11-20T10:24:36;1.30;;;1.20;;
21860;SDS011;11095;48.066;8.540;2022-11-20T10:32:36;2.08;;;1.50;;
21860;SDS011;11095;48.066;8.540;2022-11-20T10:37:40;2.03;;;1.75;;
21860;SDS011;11095;48.066;8.540;2022-11-20T10:42:57;2.65;;;1.70;;
21860;SDS011;11095;48.066;8.540;2022-11-20T10:51:30;3.15;;;2.05;;
21860;SDS011;11095;48.066;8.540;2022-11-20T10:53:49;2.67;;;2.05;;
21860;SDS011;11095;48.066;8.540;2022-11-20T11:01:55;1.88;;;1.50;;
21860;SDS011;11095;48.066;8.540;2022-11-20T11:04:35;1.38;;;1.20;;
21860;SDS011;11095;48.066;8.540;2022-11-20T11:07:16;1.42;;;1.15;;
21860;SDS011;11095;48.066;8.540;2022-11-20T11:09:52;1.50;;;1.30;;
21860;SDS011;11095;48.066;8.540;2022-11-20T11:12:29;2.83;;;1.60;;
21860;SDS011;11095;48.066;8.540;2022-11-20T11:14:55;2.05;;;1.10;;
21860;SDS011;11095;48.066;8.540;2022-11-20T11:19:59;1.15;;;1.05;;
21860;SDS011;11095;48.066;8.540;2022-11-20T11:22:33;1.10;;;1.00;;
21860;SDS011;11095;48.066;8.540;2022-11-20T11:25:08;1.70;;;1.10;;
21860;SDS011;11095;48.066;8.540;2022-11-20T11:27:46;2.53;;;1.20;;
21860;SDS011;11095;48.066;8.540;2022-11-20T11:30:14;1.98;;;1.30;;
21860;SDS011;11095;48.066;8.540;2022-11-20T11:32:41;1.73;;;1.00;;
21860;SDS011;11095;48.066;8.540;2022-11-20T11:35:21;2.38;;;1.17;;
21860;SDS011;11095;48.066;8.540;2022-11-20T11:37:53;2.83;;;1.20;;
21860;SDS011;11095;48.066;8.540;2022-11-20T11:40:27;1.63;;;1.02;;
21860;SDS011;11095;48.066;8.540;2022-11-20T11:42:59;1.30;;;1.00;;
21860;SDS011;11095;48.066;8.540;2022-11-20T11:45:29;1.20;;;1.10;;
21860;SDS011;11095;48.066;8.540;2022-11-20T11:47:56;1.52;;;1.30;;
21860;SDS011;11095;48.066;8.540;2022-11-20T11:50:25;1.75;;;1.20;;
21860;SDS011;11095;48.066;8.540;2022-11-20T11:58:06;1.30;;;1.20;;
21860;SDS011;11095;48.066;8.540;2022-11-20T12:00:44;2.33;;;1.38;;
21860;SDS011;11095;48.066;8.540;2022-11-20T12:03:38;1.30;;;1.00;;
21860;SDS011;11095;48.066;8.540;2022-11-20T12:06:16;1.20;;;1.08;;
21860;SDS011;11095;48.066;8.540;2022-11-20T12:14:00;1.70;;;1.42;;
21860;SDS011;11095;48.066;8.540;2022-11-20T12:16:36;1.67;;;1.33;;
21860;SDS011;11095;48.066;8.540;2022-11-20T12:19:04;1.98;;;1.25;;
21860;SDS011;11095;48.066;8.540;2022-11-20T12:21:46;1.55;;;1.10;;
21860;SDS011;11095;48.066;8.540;2022-11-20T12:26:45;2.40;;;1.40;;
21860;SDS011;11095;48.066;8.540;2022-11-20T12:43:29;1.60;;;1.10;;
21860;SDS011;11095;48.066;8.540;2022-11-20T12:57:32;2.15;;;1.17;;
21860;SDS011;11095;48.066;8.540;2022-11-20T13:00:22;2.10;;;1.10;;
21860;SDS011;11095;48.066;8.540;2022-11-20T13:05:37;1.40;;;0.90;;
21860;SDS011;11095;48.066;8.540;2022-11-20T13:08:11;1.00;;;0.90;;
21860;SDS011;11095;48.066;8.540;2022-11-20T13:10:47;1.67;;;1.02;;
21860;SDS011;11095;48.066;8.540;2022-11-20T13:13:33;1.15;;;0.90;;
21860;SDS011;11095;48.066;8.540;2022-11-20T13:16:08;1.13;;;0.90;;
21860;SDS011;11095;48.066;8.540;2022-11-20T13:18:41;1.30;;;0.95;;
21860;SDS011;11095;48.066;8.540;2022-11-20T13:21:34;1.33;;;1.00;;
21860;SDS011;11095;48.066;8.540;2022-11-20T13:24:49;1.45;;;1.00;;
21860;SDS011;11095;48.066;8.540;2022-11-20T13:27:02;1.98;;;1.00;;
21860;SDS011;11095;48.066;8.540;2022-11-20T13:29:30;0.85;;;0.75;;
21860;SDS011;11095;48.066;8.540;2022-11-20T13:34:38;1.30;;;1.02;;
21860;SDS011;11095;48.066;8.540;2022-11-20T13:37:03;2.35;;;1.10;;
21860;SDS011;11095;48.066;8.540;2022-11-20T13:39:30;1.20;;;1.02;;
21860;SDS011;11095;48.066;8.540;2022-11-20T13:42:01;1.30;;;0.90;;
21860;SDS011;11095;48.066;8.540;2022-11-20T13:44:50;1.40;;;0.80;;
21860;SDS011;11095;48.066;8.540;2022-11-20T13:47:26;1.10;;;1.00;;
21860;SDS011;11095;48.066;8.540;2022-11-20T13:49:53;1.70;;;1.08;;
21860;SDS011;11095;48.066;8.540;2022-11-20T13:55:11;1.58;;;1.13;;
21860;SDS011;11095;48.066;8.540;2022-11-20T14:00:32;2.00;;;1.33;;
21860;SDS011;11095;48.066;8.540;2022-11-20T14:05:55;1.70;;;1.35;;
21860;SDS011;11095;48.066;8.540;2022-11-20T14:08:38;1.80;;;1.30;;
21860;SDS011;11095;48.066;8.540;2022-11-20T14:11:18;2.03;;;1.30;;
21860;SDS011;11095;48.066;8.540;2022-11-20T14:13:55;1.65;;;1.15;;
21860;SDS011;11095;48.066;8.540;2022-11-20T14:16:30;1.63;;;1.40;;
21860;SDS011;11095;48.066;8.540;2022-11-20T14:19:08;1.70;;;1.40;;
21860;SDS011;11095;48.066;8.540;2022-11-20T14:21:48;1.50;;;1.27;;
21860;SDS011;11095;48.066;8.540;2022-11-20T14:24:21;2.95;;;1.60;;
21860;SDS011;11095;48.066;8.540;2022-11-20T14:26:48;1.30;;;1.20;;
21860;SDS011;11095;48.066;8.540;2022-11-20T14:29:16;1.40;;;1.30;;
21860;SDS011;11095;48.066;8.540;2022-11-20T14:31:46;3.00;;;1.60;;
21860;SDS011;11095;48.066;8.540;2022-11-20T14:34:16;2.25;;;1.42;;
21860;SDS011;11095;48.066;8.540;2022-11-20T14:36:47;1.85;;;1.58;;
21860;SDS011;11095;48.066;8.540;2022-11-20T14:39:20;3.58;;;2.13;;
21860;SDS011;11095;48.066;8.540;2022-11-20T14:41:50;4.30;;;2.25;;
21860;SDS011;11095;48.066;8.540;2022-11-20T14:46:44;14.05;;;12.65;;
21860;SDS011;11095;48.066;8.540;2022-11-20T14:49:09;5.93;;;5.32;;
21860;SDS011;11095;48.066;8.540;2022-11-20T14:51:39;3.38;;;2.67;;
21860;SDS011;11095;48.066;8.540;2022-11-20T14:54:20;4.00;;;1.98;;
21860;SDS011;11095;48.066;8.540;2022-11-20T14:56:54;3.25;;;2.20;;
21860;SDS011;11095;48.066;8.540;2022-11-20T14:59:29;3.67;;;2.30;;
21860;SDS011;11095;48.066;8.540;2022-11-20T15:02:00;13.85;;;7.78;;
21860;SDS011;11095;48.066;8.540;2022-11-20T15:04:28;5.63;;;3.95;;
21860;SDS011;11095;48.066;8.540;2022-11-20T15:06:55;1.88;;;1.70;;
21860;SDS011;11095;48.066;8.540;2022-11-20T15:09:22;3.10;;;1.45;;
21860;SDS011;11095;48.066;8.540;2022-11-20T15:11:55;2.38;;;1.73;;
21860;SDS011;11095;48.066;8.540;2022-11-20T15:14:21;3.13;;;1.67;;
21860;SDS011;11095;48.066;8.540;2022-11-20T15:16:48;1.98;;;1.77;;
21860;SDS011;11095;48.066;8.540;2022-11-20T15:19:20;2.58;;;1.52;;
21860;SDS011;11095;48.066;8.540;2022-11-20T15:21:51;2.58;;;1.90;;
21860;SDS011;11095;48.066;8.540;2022-11-20T15:24:17;1.98;;;1.67;;
21860;SDS011;11095;48.066;8.540;2022-11-20T15:26:43;1.98;;;1.60;;
21860;SDS011;11095;48.066;8.540;2022-11-20T15:29:13;2.65;;;2.00;;
21860;SDS011;11095;48.066;8.540;2022-11-20T15:31:43;2.45;;;2.05;;
21860;SDS011;11095;48.066;8.540;2022-11-20T15:34:14;2.17;;;1.90;;
21860;SDS011;11095;48.066;8.540;2022-11-20T15:36:40;3.13;;;2.30;;
21860;SDS011;11095;48.066;8.540;2022-11-20T15:39:07;2.03;;;1.67;;
21860;SDS011;11095;48.066;8.540;2022-11-20T15:41:34;2.15;;;1.55;;
21860;SDS011;11095;48.066;8.540;2022-11-20T15:44:00;1.65;;;1.50;;
21860;SDS011;11095;48.066;8.540;2022-11-20T15:46:27;2.17;;;1.58;;
21860;SDS011;11095;48.066;8.540;2022-11-20T15:48:58;2.45;;;1.55;;
21860;SDS011;11095;48.066;8.540;2022-11-20T15:53:55;3.63;;;2.10;;
21860;SDS011;11095;48.066;8.540;2022-11-20T15:56:21;2.70;;;2.20;;
21860;SDS011;11095;48.066;8.540;2022-11-20T15:58:48;2.75;;;2.00;;
21860;SDS011;11095;48.066;8.540;2022-11-20T16:01:14;2.63;;;2.00;;
21860;SDS011;11095;48.066;8.540;2022-11-20T16:03:42;2.20;;;1.90;;
21860;SDS011;11095;48.066;8.540;2022-11-20T16:06:08;4.38;;;2.10;;
21860;SDS011;11095;48.066;8.540;2022-11-20T16:08:34;4.07;;;3.13;;
21860;SDS011;11095;48.066;8.540;2022-11-20T16:10:59;4.45;;;3.00;;
21860;SDS011;11095;48.066;8.540;2022-11-20T16:13:25;5.55;;;2.45;;
21860;SDS011;11095;48.066;8.540;2022-11-20T16:16:11;7.00;;;3.97;;
21860;SDS011;11095;48.066;8.540;2022-11-20T16:18:45;9.20;;;5.50;;
21860;SDS011;11095;48.066;8.540;2022-11-20T16:21:11;15.10;;;8.10;;
21860;SDS011;11095;48.066;8.540;2022-11-20T16:23:38;10.75;;;6.15;;
21860;SDS011;11095;48.066;8.540;2022-11-20T16:26:14;9.52;;;5.05;;
21860;SDS011;11095;48.066;8.540;2022-11-20T16:28:45;9.98;;;5.10;;
21860;SDS011;11095;48.066;8.540;2022-11-20T16:31:12;14.63;;;8.73;;
21860;SDS011;11095;48.066;8.540;2022-11-20T16:33:39;15.55;;;9.27;;
21860;SDS011;11095;48.066;8.540;2022-11-20T16:38:40;6.85;;;4.55;;
21860;SDS011;11095;48.066;8.540;2022-11-20T16:41:06;3.30;;;2.60;;
21860;SDS011;11095;48.066;8.540;2022-11-20T16:43:42;3.60;;;2.60;;
21860;SDS011;11095;48.066;8.540;2022-11-20T16:46:10;3.30;;;2.42;;
21860;SDS011;11095;48.066;8.540;2022-11-20T16:48:36;3.17;;;2.50;;
21860;SDS011;11095;48.066;8.540;2022-11-20T16:51:02;4.05;;;3.20;;
21860;SDS011;11095;48.066;8.540;2022-11-20T16:53:28;4.60;;;3.30;;